Time;durP1;ratioP1;P1;durP2;ratioP2;P2;SDS_P1;SDS_P2;PMS_P1;PMS_P2;Temp;Humidity;BMP_temperature;BMP_pressure;BME280_temperature;BME280_humidity;BME280_pressure;Samples;Min_cycle;Max_cycle;Signal;HPM_P1;HPM_P2
2021/12/07 00:00:48;;;;;;;;;;;;;;;13.87;65.22;100111.25;1045647;28;682;-69
2021/12/07 00:01:38;;;;;;;;;;;;;;;13.88;65.40;100121.00;1045719;28;701;-69
2021/12/07 00:02:28;;;;;;;;;;;;;;;13.88;64.90;100117.47;1045558;28;783;-72
2021/12/07 00:03:20;;;;;;;;;;;;;;;13.88;65.02;100128.19;1045497;28;642;-73
2021/12/07 00:04:10;;;;;;;;;;;;;;;13.88;65.16;100131.72;1045673;28;850;-72
2021/12/07 00:05:01;;;;;;;;;;;;;;;13.87;65.59;100126.47;1045565;28;669;-72
2021/12/07 00:05:51;;;;;;;;;;;;;;;13.87;64.89;100135.38;1045561;28;1298;-72
2021/12/07 00:06:42;;;;;;;;;;;;;;;13.87;65.63;100129.16;1044851;28;787;-74
2021/12/07 00:07:32;;;;;;;;;;;;;;;13.85;65.47;100131.97;1044885;28;760;-71
2021/12/07 00:08:25;;;;;;;;;;;;;;;13.85;65.53;100129.31;1045079;28;680;-72
2021/12/07 00:09:16;;;;;;;;;;;;;;;13.84;64.93;100129.44;1046820;28;625;-71
2021/12/07 00:10:06;;;;;;;;;;;;;;;13.85;65.73;100129.31;1044862;28;1499;-71
2021/12/07 00:10:57;;;;;;;;;;;;;;;13.82;65.67;100116.19;1044685;28;1841;-70
2021/12/07 00:11:48;;;;;;;;;;;;;;;13.82;65.67;100121.53;1048352;28;1568;-69
2021/12/07 00:12:41;;;;;;;;;;;;;;;13.82;65.22;100118.84;1047190;28;1389;-70
2021/12/07 00:13:36;;;;;;;;;;;;;;;13.83;65.76;100127.75;1049615;28;1577;-72
2021/12/07 00:14:33;;;;;;;;;;;;;;;13.82;65.43;100121.53;1046288;28;650;-73
2021/12/07 00:15:24;;;;;;;;;;;;;;;13.82;64.97;100116.19;1049447;28;664;-78
2021/12/07 00:16:15;;;;;;;;;;;;;;;13.80;66.00;100115.47;1051215;27;704;-75
2021/12/07 00:17:05;;;;;;;;;;;;;;;13.80;66.12;100119.97;1046086;28;822;-75
2021/12/07 00:17:56;;;;;;;;;;;;;;;13.80;65.83;100119.97;1049502;28;1347;-77
2021/12/07 00:18:46;;;;;;;;;;;;;;;13.80;65.77;100117.28;1046872;28;1031;-76
2021/12/07 00:19:37;;;;;;;;;;;;;;;13.79;66.13;100118.31;1048735;28;1429;-76
2021/12/07 00:20:27;;;;;;;;;;;;;;;13.79;66.10;100129.03;1046666;28;1575;-78
2021/12/07 00:21:18;;;;;;;;;;;;;;;13.79;66.37;100123.66;1048950;28;1517;-78
2021/12/07 00:22:08;;;;;;;;;;;;;;;13.78;66.39;100133.53;1045016;28;673;-79
2021/12/07 00:22:58;;;;;;;;;;;;;;;13.78;65.11;100132.69;1049215;28;1660;-79
2021/12/07 00:23:49;;;;;;;;;;;;;;;13.79;65.85;100135.19;1050924;28;1504;-79
2021/12/07 00:24:39;;;;;;;;;;;;;;;13.80;65.98;100130.69;1053176;28;1427;-78
2021/12/07 00:25:30;;;;;;;;;;;;;;;13.79;65.70;100129.84;1047698;28;1463;-77
2021/12/07 00:26:20;;;;;;;;;;;;;;;13.79;65.90;100131.69;1046322;28;1338;-77
2021/12/07 00:27:11;;;;;;;;;;;;;;;13.80;66.18;100136.03;1047748;28;1493;-77
2021/12/07 00:28:01;;;;;;;;;;;;;;;13.79;65.48;100126.34;1049129;28;1427;-77
2021/12/07 00:28:52;;;;;;;;;;;;;;;13.77;65.26;100126.47;1047771;28;1400;-72
2021/12/07 00:29:42;;;;;;;;;;;;;;;13.78;65.03;100132.69;1046430;28;1457;-72
2021/12/07 00:30:34;;;;;;;;;;;;;;;13.77;65.33;100126.47;1047910;28;1395;-74
2021/12/07 00:31:31;;;;;;;;;;;;;;;13.78;65.54;100119.28;1047403;28;1521;-72
2021/12/07 00:32:30;;;;;;;;;;;;;;;13.78;64.92;100121.97;1044999;28;1553;-73
2021/12/07 00:36:36;;;;;;;;;;;;;;;13.78;65.95;100143.41;1046862;28;1525;-73
2021/12/07 00:37:26;;;;;;;;;;;;;;;13.77;65.32;100133.66;1047140;28;1568;-72
2021/12/07 00:38:17;;;;;;;;;;;;;;;13.76;65.86;100135.50;1048425;28;1413;-72
2021/12/07 00:39:07;;;;;;;;;;;;;;;13.75;66.00;100141.00;1047196;28;1489;-73
2021/12/07 00:39:57;;;;;;;;;;;;;;;13.75;65.43;100130.28;1044086;28;1947;-73
2021/12/07 00:40:48;;;;;;;;;;;;;;;13.75;65.09;100122.25;1046299;28;1559;-73
2021/12/07 00:41:38;;;;;;;;;;;;;;;13.75;65.53;100127.59;1049644;28;1535;-73
2021/12/07 00:42:29;;;;;;;;;;;;;;;13.74;65.71;100134.78;1047247;28;1371;-74
2021/12/07 00:43:19;;;;;;;;;;;;;;;13.74;65.91;100137.47;1048914;28;1399;-70
2021/12/07 00:44:10;;;;;;;;;;;;;;;13.73;66.28;100129.56;1047490;28;1423;-71
2021/12/07 00:45:01;;;;;;;;;;;;;;;13.72;65.81;100128.72;1048860;28;1363;-71
2021/12/07 00:45:54;;;;;;;;;;;;;;;13.73;65.25;100137.59;1041584;28;665;-72
2021/12/07 00:46:45;;;;;;;;;;;;;;;13.74;65.80;100137.47;1045084;28;1375;-73
2021/12/07 00:47:35;;;;;;;;;;;;;;;13.75;65.48;100138.31;1049671;28;1469;-73
2021/12/07 00:48:25;;;;;;;;;;;;;;;13.74;65.23;100131.25;1046803;28;1419;-73
2021/12/07 00:49:16;;;;;;;;;;;;;;;13.75;65.78;100135.63;1048314;28;1495;-72
2021/12/07 00:50:06;;;;;;;;;;;;;;;13.74;65.24;100133.94;1049582;28;1828;-74
2021/12/07 00:50:57;;;;;;;;;;;;;;;13.74;65.65;100139.28;1049599;28;1575;-74
2021/12/07 00:51:48;;;;;;;;;;;;;;;13.74;65.47;100141.97;1045485;28;790;-74
2021/12/07 00:52:38;;;;;;;;;;;;;;;13.73;65.27;100141.13;1048448;28;1430;-75
2021/12/07 00:53:28;;;;;;;;;;;;;;;13.74;65.52;100147.31;1049741;28;704;-75
2021/12/07 00:54:19;;;;;;;;;;;;;;;13.72;65.55;100143.94;1045558;28;654;-72
2021/12/07 00:55:09;;;;;;;;;;;;;;;13.72;65.66;100141.25;1045527;28;675;-74
2021/12/07 00:56:00;;;;;;;;;;;;;;;13.72;66.27;100152.81;1045528;28;1125;-72
2021/12/07 00:56:50;;;;;;;;;;;;;;;13.72;66.06;100149.28;1045496;28;748;-70
2021/12/07 00:57:41;;;;;;;;;;;;;;;13.73;66.00;100153.66;1045520;28;720;-72
2021/12/07 00:58:31;;;;;;;;;;;;;;;13.72;65.52;100147.47;1048088;28;1575;-72
2021/12/07 00:59:21;;;;;;;;;;;;;;;13.71;65.83;100156.47;1049243;28;701;-73
2021/12/07 01:00:12;;;;;;;;;;;;;;;13.72;65.93;100160.00;1048770;28;1949;-72
2021/12/07 01:01:02;;;;;;;;;;;;;;;13.71;65.72;100158.31;1048640;28;720;-71
2021/12/07 01:01:53;;;;;;;;;;;;;;;13.70;66.08;100156.59;1048373;28;724;-71
2021/12/07 01:02:43;;;;;;;;;;;;;;;13.71;66.30;100160.97;1048572;28;694;-73
2021/12/07 01:03:34;;;;;;;;;;;;;;;13.71;65.78;100156.47;1048644;28;712;-72
2021/12/07 01:04:25;;;;;;;;;;;;;;;13.70;65.55;100162.81;1048276;28;687;-72
2021/12/07 01:05:27;;;;;;;;;;;;;;;13.70;65.63;100167.31;1048576;28;744;-72
2021/12/07 01:06:25;;;;;;;;;;;;;;;13.70;65.39;100164.63;1052948;28;681;-72
2021/12/07 01:07:33;;;;;;;;;;;;;;;13.69;66.02;100160.25;1053503;28;775;-72
2021/12/07 01:08:52;;;;;;;;;;;;;;;13.68;65.23;100164.78;1045072;28;661;-72
2021/12/07 01:25:31;;;;;;;;;;;;;;;13.61;65.86;100178.84;1045985;28;685;-72
2021/12/07 01:26:23;;;;;;;;;;;;;;;13.63;65.87;100179.53;1046087;28;724;-73
2021/12/07 01:27:13;;;;;;;;;;;;;;;13.62;65.59;100180.53;1046039;28;601;-73
2021/12/07 01:28:12;;;;;;;;;;;;;;;13.63;65.46;100179.53;1044456;28;753;-73
2021/12/07 01:29:03;;;;;;;;;;;;;;;13.62;65.84;100185.88;1046191;28;630;-73
2021/12/07 01:30:20;;;;;;;;;;;;;;;13.62;65.93;100180.53;1045048;28;669;-73
2021/12/07 01:31:30;;;;;;;;;;;;;;;13.63;65.78;100182.22;1046306;28;732;-73
2021/12/07 01:35:40;;;;;;;;;;;;;;;13.58;66.22;100193.34;1042059;28;657;-73
2021/12/07 01:36:44;;;;;;;;;;;;;;;13.59;65.75;100192.38;1041081;28;781;-73
2021/12/07 01:38:02;;;;;;;;;;;;;;;13.58;65.95;100193.34;1042121;28;702;-73
2021/12/07 01:42:54;;;;;;;;;;;;;;;13.60;65.79;100201.25;1050364;28;712;-71
2021/12/07 01:45:52;;;;;;;;;;;;;;;13.59;64.98;100202.22;1042265;28;676;-72
2021/12/07 01:47:56;;;;;;;;;;;;;;;13.57;65.42;100205.03;1041755;28;1915;-71
2021/12/07 01:59:34;;;;;;;;;;;;;;;13.51;65.43;100217.13;1046616;28;806;-72
2021/12/07 02:00:25;;;;;;;;;;;;;;;13.52;65.54;100228.69;1046270;28;669;-72
2021/12/07 02:01:15;;;;;;;;;;;;;;;13.51;65.14;100221.63;1046152;28;712;-70
2021/12/07 02:02:06;;;;;;;;;;;;;;;13.49;65.26;100219.09;1046103;28;693;-84
2021/12/07 02:02:56;;;;;;;;;;;;;;;13.52;65.50;100223.31;1046158;28;621;-83
2021/12/07 02:03:46;;;;;;;;;;;;;;;13.51;66.06;100226.97;1045986;28;710;-83
2021/12/07 02:04:37;;;;;;;;;;;;;;;13.50;65.44;100225.28;1045967;28;701;-83
2021/12/07 02:05:27;;;;;;;;;;;;;;;13.49;65.31;100229.78;1040471;28;1276;-81
2021/12/07 02:06:18;;;;;;;;;;;;;;;13.51;65.00;100225.16;1041069;28;693;-84
2021/12/07 02:07:08;;;;;;;;;;;;;;;13.49;65.93;100229.78;1045380;28;1804;-83
2021/12/07 02:07:59;;;;;;;;;;;;;;;13.50;65.82;100236.84;1050013;28;891;-80
2021/12/07 02:08:49;;;;;;;;;;;;;;;13.52;65.04;100231.34;1050246;28;683;-80
2021/12/07 02:09:42;;;;;;;;;;;;;;;13.52;64.71;100234.88;1049220;28;828;-80
2021/12/07 02:10:33;;;;;;;;;;;;;;;13.50;65.29;100230.63;1049235;28;654;-72
2021/12/07 02:11:24;;;;;;;;;;;;;;;13.49;66.07;100228.94;1049208;28;713;-73
2021/12/07 02:12:14;;;;;;;;;;;;;;;13.50;65.08;100236.84;1049507;28;815;-72
2021/12/07 02:13:18;;;;;;;;;;;;;;;13.49;65.47;100229.78;1049225;28;637;-73
2021/12/07 02:14:16;;;;;;;;;;;;;;;13.48;65.25;100232.59;1049690;28;716;-72
2021/12/07 02:15:06;;;;;;;;;;;;;;;13.48;65.34;100232.59;1049161;28;692;-72
2021/12/07 02:15:57;;;;;;;;;;;;;;;13.49;65.01;100232.47;1048983;28;755;-72
2021/12/07 02:16:47;;;;;;;;;;;;;;;13.48;65.59;100244.16;1045493;28;708;-71
2021/12/07 02:17:38;;;;;;;;;;;;;;;13.47;65.18;100238.94;1045098;28;669;-70
2021/12/07 02:18:28;;;;;;;;;;;;;;;13.46;65.04;100231.88;1045467;28;738;-71
2021/12/07 02:19:19;;;;;;;;;;;;;;;13.48;65.62;100240.63;1045426;28;787;-70
2021/12/07 02:20:09;;;;;;;;;;;;;;;13.47;65.63;100242.47;1044895;28;1959;-70
2021/12/07 02:21:00;;;;;;;;;;;;;;;13.48;65.62;100238.81;1046036;28;806;-70
2021/12/07 02:21:50;;;;;;;;;;;;;;;13.47;65.12;100242.47;1044839;28;627;-70
2021/12/07 02:22:41;;;;;;;;;;;;;;;13.47;65.38;100244.28;1044915;28;698;-70
2021/12/07 02:23:31;;;;;;;;;;;;;;;13.46;64.92;100247.94;1045438;28;626;-71
2021/12/07 02:24:21;;;;;;;;;;;;;;;13.47;65.08;100244.28;1044891;28;769;-71
2021/12/07 02:25:12;;;;;;;;;;;;;;;13.47;65.83;100244.28;1045941;28;811;-71
2021/12/07 02:26:02;;;;;;;;;;;;;;;13.46;65.99;100256.81;1045360;28;1018;-71
2021/12/07 02:26:53;;;;;;;;;;;;;;;13.45;65.73;100254.28;1045522;28;665;-71
2021/12/07 02:27:45;;;;;;;;;;;;;;;13.44;66.08;100261.44;1050445;28;659;-68
2021/12/07 02:28:39;;;;;;;;;;;;;;;13.45;66.04;100257.78;1051613;27;796;-69
2021/12/07 02:29:29;;;;;;;;;;;;;;;13.43;65.67;100257.13;1046590;28;888;-69
2021/12/07 02:30:19;;;;;;;;;;;;;;;13.45;65.40;100259.63;1045498;28;720;-67
2021/12/07 02:31:10;;;;;;;;;;;;;;;13.46;65.58;100262.16;1046054;28;819;-68
2021/12/07 02:32:02;;;;;;;;;;;;;;;13.46;65.91;100255.97;1044897;28;795;-68
2021/12/07 02:32:53;;;;;;;;;;;;;;;13.45;65.71;100263.16;1044946;28;802;-67
2021/12/07 02:33:43;;;;;;;;;;;;;;;13.44;65.87;100252.56;1045502;28;661;-68
2021/12/07 02:34:36;;;;;;;;;;;;;;;13.43;66.01;100261.63;1044750;28;656;-68
2021/12/07 02:35:28;;;;;;;;;;;;;;;13.42;65.40;100260.75;1046583;28;708;-67
2021/12/07 02:36:18;;;;;;;;;;;;;;;13.42;65.23;100266.13;1044846;28;708;-68
2021/12/07 02:37:09;;;;;;;;;;;;;;;13.42;66.20;100265.28;1048140;28;1941;-68
2021/12/07 02:37:59;;;;;;;;;;;;;;;13.42;65.91;100270.63;1048881;28;625;-68
2021/12/07 02:38:50;;;;;;;;;;;;;;;13.42;65.31;100273.28;1049043;28;646;-69
2021/12/07 02:39:40;;;;;;;;;;;;;;;13.42;65.65;100262.59;1048524;28;629;-69
2021/12/07 02:40:31;;;;;;;;;;;;;;;13.42;65.03;100262.59;1049060;28;669;-69
2021/12/07 02:41:21;;;;;;;;;;;;;;;13.41;65.00;100269.78;1048900;28;837;-69
2021/12/07 02:42:11;;;;;;;;;;;;;;;13.41;65.22;100268.94;1049701;28;645;-68
2021/12/07 02:43:02;;;;;;;;;;;;;;;13.40;65.60;100269.91;1048934;28;676;-72
2021/12/07 02:43:52;;;;;;;;;;;;;;;13.41;64.96;100272.44;1049081;28;721;-72
2021/12/07 02:44:43;;;;;;;;;;;;;;;13.40;65.93;100267.22;1048993;28;696;-72
2021/12/07 02:45:33;;;;;;;;;;;;;;;13.40;65.20;100272.56;1048800;28;911;-73
2021/12/07 02:46:24;;;;;;;;;;;;;;;13.40;65.71;100270.75;1048966;28;1638;-72
2021/12/07 02:47:14;;;;;;;;;;;;;;;13.40;65.65;100272.56;1044983;28;840;-73
2021/12/07 02:48:04;;;;;;;;;;;;;;;13.38;65.40;100278.06;1045680;28;688;-72
2021/12/07 02:48:55;;;;;;;;;;;;;;;13.39;65.83;100279.75;1043864;28;665;-71
2021/12/07 02:49:45;;;;;;;;;;;;;;;13.40;65.05;100273.44;1044986;28;998;-71
2021/12/07 02:50:36;;;;;;;;;;;;;;;13.40;65.87;100285.97;1049505;28;705;-70
2021/12/07 02:51:26;;;;;;;;;;;;;;;13.40;65.84;100288.63;1049363;28;656;-71
2021/12/07 02:52:16;;;;;;;;;;;;;;;13.39;65.32;100294.97;1049569;28;641;-70
2021/12/07 02:53:07;;;;;;;;;;;;;;;13.39;65.11;100295.81;1049426;28;673;-71
2021/12/07 02:53:57;;;;;;;;;;;;;;;13.40;65.64;100299.34;1049464;28;1132;-71
2021/12/07 02:54:50;;;;;;;;;;;;;;;13.39;65.79;100309.19;1046175;28;699;-73
2021/12/07 02:55:40;;;;;;;;;;;;;;;13.40;65.10;100304.69;1045955;28;1341;-74
2021/12/07 02:56:31;;;;;;;;;;;;;;;13.40;64.88;100305.53;1048932;28;608;-73
2021/12/07 02:57:21;;;;;;;;;;;;;;;13.38;65.07;100302.16;1049422;28;673;-72
2021/12/07 02:58:12;;;;;;;;;;;;;;;13.38;64.89;100306.66;1049581;28;745;-71
2021/12/07 02:59:04;;;;;;;;;;;;;;;13.37;65.37;100305.81;1049993;28;673;-71
2021/12/07 03:00:03;;;;;;;;;;;;;;;13.38;64.95;100304.81;1049262;28;1966;-72
2021/12/07 03:01:02;;;;;;;;;;;;;;;13.39;65.29;100305.66;1046155;28;940;-72
2021/12/07 03:02:00;;;;;;;;;;;;;;;13.38;65.56;100298.63;1046118;28;796;-72
2021/12/07 03:02:57;;;;;;;;;;;;;;;13.37;65.29;100300.44;1049912;28;712;-72
2021/12/07 03:03:59;;;;;;;;;;;;;;;13.36;65.73;100298.75;1045919;28;1017;-71
2021/12/07 03:05:05;;;;;;;;;;;;;;;13.37;65.28;100305.81;1045365;28;559;-72
2021/12/07 03:06:10;;;;;;;;;;;;;;;13.37;65.40;100307.63;1045205;28;1278;-71
2021/12/07 03:08:37;;;;;;;;;;;;;;;13.34;65.21;100306.06;1046373;28;681;-72
2021/12/07 03:26:19;;;;;;;;;;;;;;;13.32;65.86;100318.72;1045672;28;688;-75
2021/12/07 03:27:09;;;;;;;;;;;;;;;13.31;64.91;100317.00;1045826;28;756;-76
2021/12/07 03:28:00;;;;;;;;;;;;;;;13.32;65.63;100316.03;1045176;28;684;-74
2021/12/07 03:28:50;;;;;;;;;;;;;;;13.30;65.11;100315.31;1045215;28;614;-71
2021/12/07 03:29:41;;;;;;;;;;;;;;;13.30;66.16;100315.31;1045217;28;676;-72
2021/12/07 03:30:31;;;;;;;;;;;;;;;13.30;65.66;100314.47;1045157;28;646;-72
2021/12/07 03:31:25;;;;;;;;;;;;;;;13.29;65.80;100318.97;1048047;28;1738;-72
2021/12/07 03:32:17;;;;;;;;;;;;;;;13.28;65.66;100319.94;1053392;28;1063;-72
2021/12/07 03:33:07;;;;;;;;;;;;;;;13.29;65.41;100323.47;1053847;28;794;-72
2021/12/07 03:33:58;;;;;;;;;;;;;;;13.29;65.88;100324.31;1049283;28;696;-72
2021/12/07 03:34:48;;;;;;;;;;;;;;;13.29;66.01;100328.81;1048538;28;618;-72
2021/12/07 03:35:38;;;;;;;;;;;;;;;13.29;65.43;100328.81;1048766;28;735;-72
2021/12/07 03:36:29;;;;;;;;;;;;;;;13.29;66.06;100328.81;1048620;28;598;-73
2021/12/07 03:37:19;;;;;;;;;;;;;;;13.29;65.49;100328.81;1048782;28;833;-72
2021/12/07 03:38:10;;;;;;;;;;;;;;;13.29;65.80;100334.19;1048885;28;658;-72
2021/12/07 03:39:00;;;;;;;;;;;;;;;13.29;66.01;100334.19;1048642;28;637;-73
2021/12/07 03:39:51;;;;;;;;;;;;;;;13.30;65.55;100335.88;1048767;28;773;-72
2021/12/07 03:40:41;;;;;;;;;;;;;;;13.30;65.75;100336.72;1052483;28;808;-72
2021/12/07 03:41:31;;;;;;;;;;;;;;;13.30;65.59;100342.06;1053684;28;763;-72
2021/12/07 03:42:22;;;;;;;;;;;;;;;13.29;66.00;100343.06;1049610;28;620;-73
2021/12/07 03:43:14;;;;;;;;;;;;;;;13.28;65.31;100344.03;1048735;28;629;-73
2021/12/07 03:44:04;;;;;;;;;;;;;;;13.29;65.71;100343.06;1048769;28;673;-73
2021/12/07 03:44:55;;;;;;;;;;;;;;;13.29;65.30;100350.22;1052369;28;861;-73
2021/12/07 03:45:45;;;;;;;;;;;;;;;13.29;65.52;100348.41;1053602;28;1365;-74
2021/12/07 03:46:36;;;;;;;;;;;;;;;13.27;65.38;100353.03;1050008;28;1198;-75
2021/12/07 03:47:26;;;;;;;;;;;;;;;13.27;65.82;100349.50;1049201;28;638;-74
2021/12/07 03:48:17;;;;;;;;;;;;;;;13.27;65.85;100353.03;1049339;28;753;-76
2021/12/07 03:49:07;;;;;;;;;;;;;;;13.28;66.04;100359.22;1049208;28;677;-77
2021/12/07 03:49:57;;;;;;;;;;;;;;;13.27;66.01;100352.19;1049081;28;739;-77
2021/12/07 03:50:48;;;;;;;;;;;;;;;13.28;65.08;100356.56;1049128;28;658;-76
2021/12/07 03:51:39;;;;;;;;;;;;;;;13.28;65.50;100345.84;1048852;28;688;-76
2021/12/07 03:52:29;;;;;;;;;;;;;;;13.29;65.35;100355.59;1049329;28;718;-76
2021/12/07 03:53:20;;;;;;;;;;;;;;;13.28;65.51;100348.53;1049340;28;634;-76
2021/12/07 03:54:10;;;;;;;;;;;;;;;13.27;66.05;100347.69;1049110;28;717;-77
2021/12/07 03:55:00;;;;;;;;;;;;;;;13.27;66.13;100342.31;1049174;28;660;-76
2021/12/07 03:55:51;;;;;;;;;;;;;;;13.27;65.36;100345.00;1049123;28;634;-76
2021/12/07 03:56:41;;;;;;;;;;;;;;;13.28;65.74;100340.50;1049097;28;688;-76
2021/12/07 03:57:32;;;;;;;;;;;;;;;13.27;65.98;100339.66;1049282;28;634;-76
2021/12/07 03:58:22;;;;;;;;;;;;;;;13.28;65.60;100345.84;1049098;28;731;-77
2021/12/07 03:59:12;;;;;;;;;;;;;;;13.27;65.20;100347.69;1049169;28;792;-76
2021/12/07 04:00:03;;;;;;;;;;;;;;;13.26;65.22;100347.81;1049194;28;1969;-76
2021/12/07 04:00:53;;;;;;;;;;;;;;;13.26;65.29;100351.34;1049061;28;957;-75
2021/12/07 04:01:44;;;;;;;;;;;;;;;13.26;65.25;100345.97;1045619;28;701;-75
2021/12/07 04:02:39;;;;;;;;;;;;;;;13.26;65.58;100345.97;1044421;28;701;-75
2021/12/07 04:03:34;;;;;;;;;;;;;;;13.27;65.08;100352.19;1044469;28;681;-75
2021/12/07 04:04:25;;;;;;;;;;;;;;;13.27;65.08;100346.81;1045615;28;693;-75
2021/12/07 04:05:18;;;;;;;;;;;;;;;13.26;65.01;100345.97;1048840;28;672;-75
2021/12/07 04:06:08;;;;;;;;;;;;;;;13.26;65.84;100343.31;1049559;28;688;-71
2021/12/07 04:06:58;;;;;;;;;;;;;;;13.25;65.09;100352.34;1045223;28;721;-72
2021/12/07 04:07:49;;;;;;;;;;;;;;;13.26;65.14;100356.69;1044295;28;688;-71
2021/12/07 04:08:41;;;;;;;;;;;;;;;13.24;65.48;100345.28;1044431;28;865;-72
2021/12/07 04:09:32;;;;;;;;;;;;;;;13.24;66.10;100347.13;1044514;28;677;-72
2021/12/07 04:10:24;;;;;;;;;;;;;;;13.25;65.80;100354.16;1044327;28;647;-76
2021/12/07 04:11:15;;;;;;;;;;;;;;;13.24;65.55;100355.13;1044563;28;705;-75
2021/12/07 04:12:05;;;;;;;;;;;;;;;13.23;65.59;100351.63;1044387;28;650;-74
2021/12/07 04:12:56;;;;;;;;;;;;;;;13.22;65.83;100359.78;1044550;28;724;-74
2021/12/07 04:13:46;;;;;;;;;;;;;;;13.22;65.34;100355.25;1044361;28;612;-75
2021/12/07 04:14:37;;;;;;;;;;;;;;;13.20;65.37;100358.06;1044602;28;681;-76
2021/12/07 04:15:28;;;;;;;;;;;;;;;13.19;66.38;100355.50;1048139;28;1113;-77
2021/12/07 04:16:19;;;;;;;;;;;;;;;13.20;66.10;100357.22;1049733;28;1869;-77
2021/12/07 04:17:09;;;;;;;;;;;;;;;13.19;65.76;100351.03;1046243;28;711;-77
2021/12/07 04:17:59;;;;;;;;;;;;;;;13.20;66.28;100354.53;1048758;28;1934;-77
2021/12/07 04:18:50;;;;;;;;;;;;;;;13.22;66.08;100360.63;1049506;28;692;-76
2021/12/07 04:19:40;;;;;;;;;;;;;;;13.21;65.94;100372.28;1045189;28;681;-77
2021/12/07 04:20:31;;;;;;;;;;;;;;;13.20;65.91;100357.22;1046117;28;704;-71
2021/12/07 04:21:21;;;;;;;;;;;;;;;13.20;66.03;100366.09;1044922;28;740;-71
2021/12/07 04:22:11;;;;;;;;;;;;;;;13.22;66.14;100374.00;1045680;28;732;-70
2021/12/07 04:23:02;;;;;;;;;;;;;;;13.20;65.59;100370.59;1042205;28;880;-70
2021/12/07 04:23:52;;;;;;;;;;;;;;;13.21;65.90;100372.28;1042827;28;700;-69
2021/12/07 04:24:43;;;;;;;;;;;;;;;13.22;65.21;100379.34;1046035;28;674;-69
2021/12/07 04:25:33;;;;;;;;;;;;;;;13.22;66.13;100383.84;1046147;28;806;-70
2021/12/07 04:26:25;;;;;;;;;;;;;;;13.20;65.82;100382.16;1045172;28;731;-67
2021/12/07 04:27:15;;;;;;;;;;;;;;;13.19;66.18;100380.44;1045607;28;680;-67
2021/12/07 04:28:06;;;;;;;;;;;;;;;13.20;65.74;100378.63;1048989;28;1020;-68
2021/12/07 04:28:56;;;;;;;;;;;;;;;13.18;65.50;100386.78;1045899;28;727;-67
2021/12/07 04:29:46;;;;;;;;;;;;;;;13.20;65.98;100382.16;1037663;28;659;-68
2021/12/07 04:30:37;;;;;;;;;;;;;;;13.20;66.08;100375.94;1041993;28;908;-68
2021/12/07 04:31:27;;;;;;;;;;;;;;;13.19;65.49;100391.16;1048434;28;1796;-68
2021/12/07 04:32:18;;;;;;;;;;;;;;;13.19;66.12;100393.81;1049303;28;673;-67
2021/12/07 04:33:08;;;;;;;;;;;;;;;13.19;65.82;100388.47;1049122;28;661;-67
2021/12/07 04:33:58;;;;;;;;;;;;;;;13.18;66.27;100375.22;1048567;28;760;-67
2021/12/07 04:34:49;;;;;;;;;;;;;;;13.17;65.25;100379.72;1048673;28;668;-68
2021/12/07 04:35:39;;;;;;;;;;;;;;;13.18;65.46;100383.25;1048548;28;629;-68
2021/12/07 04:36:30;;;;;;;;;;;;;;;13.17;65.93;100377.03;1048623;28;693;-68
2021/12/07 04:37:20;;;;;;;;;;;;;;;13.18;65.99;100370.72;1049111;28;635;-76
2021/12/07 04:38:11;;;;;;;;;;;;;;;13.18;65.42;100375.22;1044774;28;856;-76
2021/12/07 04:39:01;;;;;;;;;;;;;;;13.18;65.14;100373.41;1042149;28;689;-75
2021/12/07 04:39:51;;;;;;;;;;;;;;;13.17;65.38;100376.19;1047794;28;836;-75
2021/12/07 04:40:42;;;;;;;;;;;;;;;13.18;65.48;100381.44;1049261;28;720;-75
2021/12/07 04:41:33;;;;;;;;;;;;;;;13.18;65.55;100377.91;1049100;28;837;-76
2021/12/07 04:42:25;;;;;;;;;;;;;;;13.17;65.19;100370.84;1049071;28;743;-76
2021/12/07 04:43:16;;;;;;;;;;;;;;;13.18;65.07;100375.22;1049296;28;696;-76
2021/12/07 04:44:06;;;;;;;;;;;;;;;13.17;65.52;100378.88;1048985;28;709;-76
2021/12/07 04:45:01;;;;;;;;;;;;;;;13.18;65.17;100385.91;1049182;28;708;-76
2021/12/07 04:46:01;;;;;;;;;;;;;;;13.17;65.19;100395.78;1044603;28;1280;-76
2021/12/07 04:48:00;;;;;;;;;;;;;;;13.16;65.43;100391.41;1045077;28;641;-75
2021/12/07 04:49:34;;;;;;;;;;;;;;;13.17;65.56;100393.09;1046763;28;691;-78
2021/12/07 04:57:48;;;;;;;;;;;;;;;13.13;65.27;100409.50;1049136;28;680;-78
2021/12/07 04:58:38;;;;;;;;;;;;;;;13.12;65.30;100414.00;1052248;28;755;-78
2021/12/07 04:59:28;;;;;;;;;;;;;;;13.13;65.82;100418.38;1053605;28;680;-79
2021/12/07 05:00:19;;;;;;;;;;;;;;;13.14;65.43;100411.19;1049514;28;1981;-78
2021/12/07 05:01:11;;;;;;;;;;;;;;;13.14;65.50;100411.19;1048410;28;801;-75
2021/12/07 05:02:02;;;;;;;;;;;;;;;13.14;65.80;100397.81;1048537;28;638;-79
2021/12/07 05:03:00;;;;;;;;;;;;;;;13.15;65.11;100399.56;1049053;28;757;-78
2021/12/07 05:03:52;;;;;;;;;;;;;;;13.13;66.01;100398.78;1049455;28;622;-78
2021/12/07 05:04:43;;;;;;;;;;;;;;;13.13;65.22;100414.84;1049478;28;667;-77
2021/12/07 05:05:39;;;;;;;;;;;;;;;13.13;65.23;100421.03;1049155;28;1175;-77
2021/12/07 05:06:32;;;;;;;;;;;;;;;13.12;65.90;100432.72;1049152;28;652;-77
2021/12/07 05:07:31;;;;;;;;;;;;;;;13.14;65.50;100435.28;1049214;28;759;-79
2021/12/07 05:09:43;;;;;;;;;;;;;;;13.14;65.75;100432.59;1050447;28;816;-69
2021/12/07 05:10:48;;;;;;;;;;;;;;;13.14;65.19;100421.91;1049097;28;658;-72
2021/12/07 05:12:15;;;;;;;;;;;;;;;13.14;65.95;100428.09;1048971;28;1583;-71
2021/12/07 05:14:18;;;;;;;;;;;;;;;13.20;65.74;100437.50;1046820;28;621;-73
2021/12/07 05:15:26;;;;;;;;;;;;;;;13.25;65.51;100442.47;1045811;28;693;-73
2021/12/07 05:17:38;;;;;;;;;;;;;;;13.31;64.52;100441.94;1046175;28;686;-73
2021/12/07 05:24:14;;;;;;;;;;;;;;;13.53;64.87;100431.16;1046242;28;766;-76
2021/12/07 05:37:46;;;;;;;;;;;;;;;13.81;65.37;100470.69;1050291;28;677;-73
2021/12/07 05:38:37;;;;;;;;;;;;;;;13.82;64.62;100471.53;1049691;28;747;-72
2021/12/07 05:39:28;;;;;;;;;;;;;;;13.85;65.35;100471.28;1049662;28;664;-77
2021/12/07 05:40:18;;;;;;;;;;;;;;;13.86;65.00;100471.16;1049546;28;1967;-75
2021/12/07 05:41:09;;;;;;;;;;;;;;;13.88;64.49;100466.53;1050451;28;672;-75
2021/12/07 05:41:59;;;;;;;;;;;;;;;13.88;64.35;100465.66;1050368;28;681;-74
2021/12/07 05:42:49;;;;;;;;;;;;;;;13.87;64.72;100472.84;1049592;28;1950;-74
2021/12/07 05:43:40;;;;;;;;;;;;;;;13.88;64.54;100474.56;1049376;28;701;-74
2021/12/07 05:44:30;;;;;;;;;;;;;;;13.89;64.47;100478.94;1049717;28;746;-73
2021/12/07 05:45:21;;;;;;;;;;;;;;;13.90;65.23;100479.78;1049277;28;705;-73
2021/12/07 05:46:11;;;;;;;;;;;;;;;13.91;65.28;100486.84;1049125;28;641;-75
2021/12/07 05:47:02;;;;;;;;;;;;;;;13.93;64.73;100476.84;1048973;28;1700;-73
2021/12/07 05:47:52;;;;;;;;;;;;;;;13.93;64.44;100482.22;1049268;28;642;-74
2021/12/07 05:48:42;;;;;;;;;;;;;;;13.95;65.23;100476.72;1049139;28;790;-73
2021/12/07 05:49:33;;;;;;;;;;;;;;;13.92;64.59;100477.84;1049299;28;658;-76
2021/12/07 05:50:24;;;;;;;;;;;;;;;13.94;65.03;100483.91;1048855;28;1384;-79
2021/12/07 05:51:14;;;;;;;;;;;;;;;13.95;65.15;100479.41;1049666;28;772;-79
2021/12/07 05:52:04;;;;;;;;;;;;;;;13.95;64.76;100482.09;1050325;28;658;-77
2021/12/07 05:52:55;;;;;;;;;;;;;;;13.95;65.31;100490.97;1050305;28;738;-77
2021/12/07 05:53:45;;;;;;;;;;;;;;;13.95;64.36;100490.13;1050221;28;638;-76
2021/12/07 05:54:36;;;;;;;;;;;;;;;13.94;65.19;100486.59;1050298;28;685;-77
2021/12/07 05:55:26;;;;;;;;;;;;;;;13.97;64.69;100486.34;1050436;28;815;-74
2021/12/07 05:56:16;;;;;;;;;;;;;;;13.97;65.24;100480.97;1050303;28;645;-74
2021/12/07 05:57:07;;;;;;;;;;;;;;;13.96;64.25;100479.28;1050343;28;764;-75
2021/12/07 05:57:57;;;;;;;;;;;;;;;13.95;64.50;100482.94;1050158;28;613;-74
2021/12/07 05:58:48;;;;;;;;;;;;;;;13.95;65.21;100482.94;1050242;28;685;-75
2021/12/07 05:59:38;;;;;;;;;;;;;;;13.97;65.25;100480.97;1050264;28;672;-72
2021/12/07 06:00:28;;;;;;;;;;;;;;;13.97;65.04;100488.16;1049655;28;1895;-71
2021/12/07 06:01:19;;;;;;;;;;;;;;;13.97;64.78;100490.84;1049028;28;1487;-73
2021/12/07 06:02:09;;;;;;;;;;;;;;;13.98;65.07;100487.16;1048305;28;1521;-74
2021/12/07 06:03:00;;;;;;;;;;;;;;;14.01;64.43;100489.56;1050220;28;1513;-74
2021/12/07 06:03:50;;;;;;;;;;;;;;;13.99;65.14;100483.50;1045039;28;634;-75